Time;durP1;ratioP1;P1;durP2;ratioP2;P2;SDS_P1;SDS_P2;PMS_P1;PMS_P2;Temp;Humidity;BMP_temperature;BMP_pressure;BME280_temperature;BME280_humidity;BME280_pressure;Samples;Min_cycle;Max_cycle;Signal;HPM_P1;HPM_P2
2022/08/12 00:44:50;;;;;;;3.67;1.80;;;21.70;51.60;;;;;;5092904;28;20077;-74
2022/08/12 00:47:18;;;;;;;2.05;1.70;;;21.70;51.60;;;;;;5090808;28;20028;-73
2022/08/12 00:49:45;;;;;;;2.88;1.48;;;21.60;51.60;;;;;;5092456;28;20024;-74
2022/08/12 00:52:12;;;;;;;1.77;1.42;;;21.60;51.90;;;;;;5091219;28;20032;-73
2022/08/12 00:54:41;;;;;;;2.50;1.42;;;21.60;52.00;;;;;;5091330;28;20028;-74
2022/08/12 00:57:13;;;;;;;1.55;1.23;;;21.60;52.00;;;;;;5091157;28;20043;-74
2022/08/12 00:59:57;;;;;;;1.50;1.40;;;21.60;52.00;;;;;;5092528;28;20024;-73
2022/08/12 01:02:33;;;;;;;3.15;1.60;;;21.50;52.30;;;;;;5092011;28;20024;-73
2022/08/12 01:13:25;;;;;;;4.07;1.40;;;21.20;53.50;;;;;;5091655;28;20040;-74
2022/08/12 01:15:54;;;;;;;4.20;1.30;;;21.20;52.80;;;;;;5092512;28;20020;-74
2022/08/12 01:18:22;;;;;;;2.60;1.40;;;21.10;53.00;;;;;;5090539;28;20047;-74
2022/08/12 01:20:51;;;;;;;1.70;1.60;;;21.10;53.20;;;;;;5091058;28;20025;-74
2022/08/12 01:23:42;;;;;;;3.60;1.58;;;21.00;53.30;;;;;;5091590;28;20024;-74
2022/08/12 01:26:13;;;;;;;2.75;1.60;;;21.00;53.30;;;;;;5090926;28;20504;-73
2022/08/12 01:28:42;;;;;;;3.22;1.33;;;21.00;53.30;;;;;;5090938;28;20036;-73
2022/08/12 01:31:10;;;;;;;1.85;1.35;;;21.00;53.30;;;;;;5090806;28;20530;-73
2022/08/12 01:33:48;;;;;;;3.97;1.70;;;21.00;53.30;;;;;;5090330;28;20024;-73
2022/08/12 01:36:17;;;;;;;4.20;1.45;;;21.00;53.40;;;;;;5089879;28;20051;-72
2022/08/12 01:38:46;;;;;;;2.05;1.40;;;21.00;53.50;;;;;;5090953;28;20032;-73
2022/08/12 01:41:15;;;;;;;3.13;1.50;;;21.00;53.50;;;;;;5090846;28;20020;-73
2022/08/12 01:43:41;;;;;;;4.40;1.45;;;20.90;53.40;;;;;;5091985;28;20168;-73
2022/08/12 01:46:28;;;;;;;3.72;1.63;;;20.90;53.30;;;;;;5094482;28;20378;-74
2022/08/12 01:49:01;;;;;;;4.35;1.40;;;20.90;53.60;;;;;;5094801;28;20456;-73
2022/08/12 01:51:42;;;;;;;2.45;1.85;;;20.90;53.50;;;;;;5095497;28;20032;-74
2022/08/12 01:54:16;;;;;;;3.70;1.55;;;20.90;53.50;;;;;;5095752;28;20034;-73
2022/08/12 01:57:02;;;;;;;6.35;1.45;;;20.90;53.50;;;;;;5095661;28;20039;-74
2022/08/12 01:59:45;;;;;;;3.83;1.50;;;20.90;53.60;;;;;;5093769;28;20039;-73
2022/08/12 02:02:20;;;;;;;3.53;1.30;;;20.90;53.70;;;;;;5095622;28;20099;-73
2022/08/12 02:14:04;;;;;;;4.45;1.27;;;20.80;53.70;;;;;;5094551;28;20034;-73
2022/08/12 02:16:45;;;;;;;3.83;1.88;;;20.80;53.70;;;;;;5093564;28;20426;-74
2022/08/12 02:19:45;;;;;;;3.45;1.48;;;20.90;53.70;;;;;;5094073;28;20032;-74
2022/08/12 02:22:30;;;;;;;2.45;1.35;;;20.90;53.90;;;;;;5095267;28;20020;-74
2022/08/12 02:25:28;;;;;;;2.55;1.60;;;20.80;53.90;;;;;;5093807;28;20081;-74
2022/08/12 02:27:55;;;;;;;1.90;1.35;;;20.80;54.00;;;;;;5095096;28;20107;-73
2022/08/12 02:30:30;;;;;;;2.80;1.40;;;20.80;54.20;;;;;;5092828;28;20035;-73
2022/08/12 02:32:58;;;;;;;3.35;1.75;;;20.70;54.00;;;;;;5093725;28;20074;-73
2022/08/12 02:35:29;;;;;;;3.67;1.67;;;20.70;54.40;;;;;;5093929;28;20043;-74
2022/08/12 02:37:57;;;;;;;1.83;1.40;;;20.70;54.60;;;;;;5095103;28;20063;-74
2022/08/12 02:40:25;;;;;;;2.88;1.40;;;20.60;54.70;;;;;;5093767;28;20063;-73
2022/08/12 02:43:18;;;;;;;2.72;1.60;;;20.60;54.70;;;;;;5094463;28;20032;-73
2022/08/12 02:45:54;;;;;;;3.40;1.58;;;20.70;54.80;;;;;;5093412;28;20470;-73
2022/08/12 02:48:50;;;;;;;1.80;1.50;;;20.60;54.70;;;;;;5092694;28;20460;-73
2022/08/12 02:51:22;;;;;;;1.45;1.20;;;20.70;54.90;;;;;;5093332;28;20085;-73
2022/08/12 02:53:49;;;;;;;2.13;1.33;;;20.70;54.80;;;;;;5094530;28;20032;-72
2022/08/12 02:56:16;;;;;;;2.80;1.60;;;20.70;54.50;;;;;;5094049;28;20036;-73
2022/08/12 02:58:45;;;;;;;3.10;1.38;;;20.70;54.70;;;;;;5092628;28;20490;-72
2022/08/12 03:01:12;;;;;;;4.63;1.30;;;20.60;54.80;;;;;;5093179;28;20024;-72
2022/08/12 03:03:39;;;;;;;2.10;1.40;;;20.60;54.90;;;;;;5092492;28;20501;-73
2022/08/12 03:06:13;;;;;;;3.08;1.35;;;20.60;54.90;;;;;;5094024;28;20056;-73
2022/08/12 03:08:42;;;;;;;3.65;1.45;;;20.50;55.00;;;;;;5092398;28;20345;-73
2022/08/12 03:11:14;;;;;;;1.73;1.40;;;20.50;55.10;;;;;;5094169;28;20024;-73
2022/08/12 03:13:46;;;;;;;3.45;1.42;;;20.50;55.10;;;;;;5092243;28;20032;-73
2022/08/12 03:16:13;;;;;;;2.03;1.63;;;20.50;55.20;;;;;;5093031;28;20024;-72
2022/08/12 03:18:41;;;;;;;4.25;1.40;;;20.50;55.10;;;;;;5092160;28;20036;-73
2022/08/12 03:21:07;;;;;;;2.03;1.60;;;20.50;55.20;;;;;;5092998;28;20028;-73
2022/08/12 03:23:35;;;;;;;1.50;1.27;;;20.50;55.50;;;;;;5092004;28;20508;-72
2022/08/12 03:26:02;;;;;;;3.10;1.58;;;20.40;55.60;;;;;;5093912;28;20108;-72
2022/08/12 03:28:52;;;;;;;1.75;1.20;;;20.40;55.70;;;;;;5091978;28;20119;-73
2022/08/12 03:31:32;;;;;;;1.92;1.20;;;20.40;55.70;;;;;;5092551;28;20032;-72
2022/08/12 03:34:06;;;;;;;2.28;1.50;;;20.40;55.80;;;;;;5094085;28;20024;-72
2022/08/12 03:36:35;;;;;;;4.85;1.73;;;20.40;55.90;;;;;;5091797;28;20070;-72
2022/08/12 03:39:20;;;;;;;1.70;1.60;;;20.40;55.90;;;;;;5094043;28;20032;-72
2022/08/12 03:41:53;;;;;;;1.50;1.27;;;20.30;55.90;;;;;;5093725;28;20035;-72
2022/08/12 04:01:08;;;;;;;1.77;1.48;;;20.20;57.40;;;;;;5093213;28;20451;-74
2022/08/12 04:03:52;;;;;;;2.25;1.60;;;20.20;56.50;;;;;;5092029;28;20028;-74
2022/08/12 04:06:25;;;;;;;3.80;1.70;;;20.20;56.40;;;;;;5091010;28;20032;-74
2022/08/12 04:08:55;;;;;;;3.55;1.70;;;20.20;56.50;;;;;;5092685;28;20530;-73
2022/08/12 04:14:12;;;;;;;2.67;1.48;;;20.10;57.00;;;;;;5092959;28;20031;-73
2022/08/12 04:16:38;;;;;;;5.53;1.58;;;20.10;57.50;;;;;;5090976;28;20097;-75
2022/08/12 04:19:05;;;;;;;3.55;1.70;;;20.10;57.90;;;;;;5092731;28;20042;-73
2022/08/12 04:21:32;;;;;;;3.30;1.42;;;20.00;58.20;;;;;;5090616;28;20085;-73
2022/08/12 04:23:58;;;;;;;2.80;1.75;;;20.00;58.20;;;;;;5091450;28;20038;-73
2022/08/12 04:26:26;;;;;;;1.73;1.50;;;20.00;58.10;;;;;;5092420;28;20043;-72
2022/08/12 04:28:53;;;;;;;3.28;1.58;;;20.00;58.10;;;;;;5090901;28;20030;-73
2022/08/12 04:31:19;;;;;;;2.53;1.88;;;19.90;58.00;;;;;;5091382;28;20028;-73
2022/08/12 04:33:45;;;;;;;3.92;1.67;;;20.00;58.10;;;;;;5090477;28;20024;-72
2022/08/12 04:36:11;;;;;;;2.70;1.67;;;19.90;58.20;;;;;;5090935;28;20138;-72
2022/08/12 04:38:37;;;;;;;4.07;1.73;;;19.90;58.50;;;;;;5091582;28;20111;-72
2022/08/12 04:41:04;;;;;;;3.33;1.50;;;19.90;58.80;;;;;;5091036;28;20589;-72
2022/08/12 04:43:30;;;;;;;2.75;1.55;;;19.90;58.90;;;;;;5090351;28;20031;-72
2022/08/12 04:45:56;;;;;;;3.47;1.30;;;19.90;59.00;;;;;;5092295;28;20020;-72
2022/08/12 04:48:22;;;;;;;2.75;1.50;;;19.90;58.80;;;;;;5090978;28;20024;-72
2022/08/12 04:50:47;;;;;;;2.65;1.45;;;19.90;58.90;;;;;;5090206;28;20039;-74
2022/08/12 04:53:13;;;;;;;4.38;1.50;;;19.90;59.00;;;;;;5090949;28;20020;-74
2022/08/12 04:55:41;;;;;;;2.88;1.67;;;19.80;59.00;;;;;;5091505;28;20028;-73
2022/08/12 04:58:07;;;;;;;2.33;1.52;;;19.80;59.00;;;;;;5090961;28;20024;-74
2022/08/12 05:00:34;;;;;;;3.42;1.80;;;19.90;59.10;;;;;;5090027;28;20021;-73
2022/08/12 05:02:59;;;;;;;4.22;1.70;;;19.80;59.00;;;;;;5091170;28;20109;-73
2022/08/12 05:05:25;;;;;;;4.32;1.80;;;19.90;59.10;;;;;;5090783;28;20078;-74
2022/08/12 05:07:52;;;;;;;2.72;1.65;;;19.80;59.10;;;;;;5090273;28;20373;-74
2022/08/12 05:10:22;;;;;;;2.17;1.52;;;19.80;59.30;;;;;;5090850;28;20055;-74
2022/08/12 05:12:52;;;;;;;1.40;1.17;;;19.80;59.40;;;;;;5091592;28;20606;-74
2022/08/12 05:15:18;;;;;;;1.45;1.30;;;19.80;59.40;;;;;;5091933;28;20109;-74
2022/08/12 05:17:44;;;;;;;2.38;1.85;;;19.80;59.20;;;;;;5091357;28;20020;-76
2022/08/12 05:20:11;;;;;;;3.80;1.77;;;19.80;59.20;;;;;;5096479;28;20110;-74
2022/08/12 05:22:40;;;;;;;3.00;1.67;;;19.90;59.20;;;;;;5093995;28;20020;-74
2022/08/12 05:25:06;;;;;;;3.60;1.55;;;19.90;59.00;;;;;;5095664;28;20465;-74
2022/08/12 05:27:35;;;;;;;2.58;1.40;;;19.90;59.00;;;;;;5093852;28;20073;-73
2022/08/12 05:30:00;;;;;;;7.05;1.98;;;19.90;59.10;;;;;;5095781;28;20107;-73
2022/08/12 05:32:27;;;;;;;2.60;1.70;;;20.00;59.00;;;;;;5094581;28;20116;-73
2022/08/12 05:34:53;;;;;;;3.38;1.65;;;20.00;59.00;;;;;;5093523;28;20052;-73
2022/08/12 05:37:22;;;;;;;3.42;1.50;;;20.00;59.00;;;;;;5094573;28;20039;-73
2022/08/12 05:39:48;;;;;;;3.45;1.75;;;20.00;59.00;;;;;;5094959;28;20073;-74
2022/08/12 05:42:14;;;;;;;5.78;1.73;;;20.00;59.00;;;;;;5095587;28;20111;-74
2022/08/12 05:44:39;;;;;;;2.33;1.50;;;20.10;59.10;;;;;;5093603;28;20112;-74
2022/08/12 05:47:05;;;;;;;3.08;1.60;;;20.10;59.10;;;;;;5094429;28;20024;-74
2022/08/12 05:49:33;;;;;;;1.88;1.40;;;20.10;59.10;;;;;;5093897;28;20038;-73
2022/08/12 05:52:00;;;;;;;2.53;1.85;;;20.20;59.10;;;;;;5094298;28;20065;-74
2022/08/12 05:54:26;;;;;;;2.60;1.60;;;20.20;58.90;;;;;;5094235;28;20031;-74
2022/08/12 05:56:52;;;;;;;3.38;1.67;;;20.30;58.90;;;;;;5094816;28;20107;-74
2022/08/12 05:59:20;;;;;;;3.72;1.50;;;20.30;58.80;;;;;;5095739;28;20035;-75
2022/08/12 06:01:45;;;;;;;3.50;1.33;;;20.40;58.60;;;;;;5093485;28;20035;-74
2022/08/12 06:04:13;;;;;;;5.63;1.77;;;20.40;58.60;;;;;;5094270;28;20028;-74
2022/08/12 06:06:41;;;;;;;2.97;1.70;;;20.40;59.60;;;;;;5094489;28;20027;-72
2022/08/12 06:09:12;;;;;;;4.10;1.50;;;20.40;59.90;;;;;;5093716;28;20075;-73
2022/08/12 06:11:40;;;;;;;3.83;1.63;;;20.50;60.10;;;;;;5093173;28;20043;-74
2022/08/12 06:14:05;;;;;;;3.08;1.30;;;20.50;60.30;;;;;;5094132;28;20465;-78
2022/08/12 06:16:34;;;;;;;4.15;1.50;;;20.60;60.10;;;;;;5094875;28;20024;-75
2022/08/12 06:19:00;;;;;;;2.78;1.42;;;20.70;59.20;;;;;;5094281;28;20081;-77
2022/08/12 06:21:25;;;;;;;3.58;1.35;;;20.70;58.50;;;;;;5095349;28;20035;-77
2022/08/12 06:23:51;;;;;;;2.83;1.83;;;20.70;58.10;;;;;;5093259;28;20032;-75
2022/08/12 06:26:19;;;;;;;2.28;1.50;;;20.80;58.10;;;;;;5093788;28;20126;-75
2022/08/12 06:28:47;;;;;;;1.83;1.27;;;20.80;58.70;;;;;;5093382;28;20373;-74
2022/08/12 06:31:15;;;;;;;3.03;1.50;;;20.90;58.00;;;;;;5094998;28;20085;-75
2022/08/12 06:33:43;;;;;;;3.45;1.60;;;20.90;57.90;;;;;;5093186;28;20028;-75
2022/08/12 06:36:13;;;;;;;4.00;1.67;;;21.00;57.80;;;;;;5092751;28;20052;-75
2022/08/12 06:38:40;;;;;;;4.70;1.50;;;21.00;57.60;;;;;;5092492;28;20056;-73
2022/08/12 06:43:52;;;;;;;3.55;1.70;;;21.10;58.10;;;;;;5094142;28;20112;-74
2022/08/12 06:46:22;;;;;;;2.70;1.30;;;21.20;58.00;;;;;;5093448;28;20089;-74
2022/08/12 06:48:49;;;;;;;3.35;1.38;;;21.30;58.00;;;;;;5094123;28;20032;-75
2022/08/12 06:51:18;;;;;;;3.45;1.30;;;21.30;58.10;;;;;;5095071;28;20074;-75
2022/08/12 06:53:44;;;;;;;6.63;1.30;;;21.30;57.60;;;;;;5092159;28;20062;-74
2022/08/12 06:56:10;;;;;;;2.80;1.55;;;21.40;58.00;;;;;;5092668;28;20063;-76
2022/08/12 06:58:37;;;;;;;3.55;1.50;;;21.40;57.50;;;;;;5091775;28;20020;-74
2022/08/12 07:01:04;;;;;;;4.03;1.30;;;21.50;57.40;;;;;;5092554;28;20024;-75
2022/08/12 07:03:30;;;;;;;3.63;1.40;;;21.50;57.40;;;;;;5092474;28;20469;-75
2022/08/12 07:05:58;;;;;;;3.42;1.50;;;21.60;57.40;;;;;;5091127;28;20031;-76
2022/08/12 07:08:28;;;;;;;2.85;1.48;;;21.60;57.40;;;;;;5092706;28;20077;-75
2022/08/12 07:10:57;;;;;;;4.28;1.60;;;21.70;57.50;;;;;;5093193;28;20096;-75
2022/08/12 07:13:29;;;;;;;3.55;1.70;;;21.70;57.20;;;;;;5093800;28;20059;-75
2022/08/12 07:15:55;;;;;;;5.40;1.60;;;21.80;57.20;;;;;;5092098;28;20027;-75
2022/08/12 07:18:26;;;;;;;2.92;1.25;;;21.80;57.20;;;;;;5092942;28;20028;-77
2022/08/12 07:20:52;;;;;;;4.97;1.50;;;22.00;57.30;;;;;;5092029;28;20165;-74
2022/08/12 07:23:18;;;;;;;1.90;1.35;;;22.00;56.80;;;;;;5094083;28;20273;-74
2022/08/12 07:25:44;;;;;;;2.70;1.40;;;22.00;56.50;;;;;;5093023;28;20040;-74
2022/08/12 07:28:22;;;;;;;3.28;1.80;;;22.10;56.60;;;;;;5092605;28;20024;-74
2022/08/12 07:30:50;;;;;;;4.63;1.88;;;22.10;56.40;;;;;;5088958;28;20031;-75
2022/08/12 07:33:21;;;;;;;8.25;1.50;;;22.20;56.60;;;;;;5093182;28;20427;-74
2022/08/12 07:35:50;;;;;;;4.68;1.42;;;22.20;56.50;;;;;;5092191;28;20046;-73
2022/08/12 07:38:41;;;;;;;3.42;1.58;;;22.20;56.60;;;;;;5091869;28;20028;-73
2022/08/12 07:41:21;;;;;;;2.30;1.40;;;22.30;56.30;;;;;;5091816;28;20024;-75
2022/08/12 07:43:53;;;;;;;2.78;1.20;;;22.30;56.20;;;;;;5091909;28;20388;-74
2022/08/12 07:46:23;;;;;;;2.00;1.40;;;22.40;56.30;;;;;;5093392;28;20062;-74
2022/08/12 07:48:52;;;;;;;3.28;1.23;;;22.50;55.90;;;;;;5090619;28;20385;-74
2022/08/12 07:51:19;;;;;;;4.82;1.50;;;22.60;55.90;;;;;;5091588;28;20118;-75
2022/08/12 07:53:45;;;;;;;4.00;1.58;;;22.60;55.60;;;;;;5078258;28;20035;-75
2022/08/12 07:56:11;;;;;;;2.28;1.40;;;22.60;55.80;;;;;;5093213;28;20103;-76
2022/08/12 07:58:39;;;;;;;6.93;1.50;;;22.60;55.60;;;;;;5092978;28;20031;-75
2022/08/12 08:01:10;;;;;;;4.13;1.38;;;22.60;55.50;;;;;;5074610;28;20062;-75
2022/08/12 08:03:37;;;;;;;3.85;1.40;;;22.70;55.30;;;;;;5092655;28;20482;-75
2022/08/12 08:06:14;;;;;;;2.85;1.33;;;22.70;55.40;;;;;;5092442;28;20092;-75
2022/08/12 08:08:40;;;;;;;4.13;1.30;;;22.80;55.60;;;;;;5091268;28;20039;-74
2022/08/12 08:13:50;;;;;;;2.03;1.45;;;22.80;55.30;;;;;;5092590;28;20035;-74
2022/08/12 08:16:15;;;;;;;5.85;1.50;;;22.90;55.00;;;;;;5083770;28;20036;-77
2022/08/12 08:18:43;;;;;;;3.33;1.33;;;23.00;54.90;;;;;;5080602;28;20096;-84
2022/08/12 08:21:09;;;;;;;2.22;1.48;;;23.00;54.80;;;;;;5075839;28;20027;-84
2022/08/12 08:26:21;;;;;;;3.33;1.33;;;23.20;54.40;;;;;;5093571;28;20066;-83
2022/08/12 08:28:47;;;;;;;1.75;1.30;;;23.20;54.30;;;;;;5078590;28;20385;-83
2022/08/12 08:31:13;;;;;;;2.38;1.40;;;23.20;54.30;;;;;;5089955;28;20028;-92
2022/08/12 08:33:40;;;;;;;2.25;1.15;;;23.40;54.20;;;;;;5087778;28;20048;-86
2022/08/12 08:36:06;;;;;;;3.50;1.23;;;23.50;53.90;;;;;;5084000;28;20040;-87
2022/08/12 08:38:32;;;;;;;5.05;1.60;;;23.50;53.60;;;;;;5084581;28;20503;-87
2022/08/12 08:43:42;;;;;;;1.85;1.42;;;23.60;53.50;;;;;;5078066;28;20027;-84
2022/08/12 08:46:07;;;;;;;3.63;1.30;;;23.70;53.60;;;;;;5092278;28;20020;-84
2022/08/12 08:48:33;;;;;;;2.10;1.25;;;23.70;53.30;;;;;;5079840;28;20036;-83
2022/08/12 08:51:01;;;;;;;2.08;1.27;;;23.80;52.90;;;;;;5087274;28;20116;-89
2022/08/12 08:53:27;;;;;;;3.63;1.60;;;23.90;52.40;;;;;;5075149;28;20082;-90
2022/08/12 08:55:53;;;;;;;2.35;1.30;;;24.10;52.00;;;;;;5085789;28;20074;-81
2022/08/12 08:58:20;;;;;;;4.03;1.30;;;24.10;51.40;;;;;;5082050;28;20020;-82
2022/08/12 09:00:49;;;;;;;1.70;1.20;;;24.10;51.80;;;;;;5077835;28;20052;-83
2022/08/12 09:03:15;;;;;;;2.30;1.20;;;24.20;52.20;;;;;;5088753;28;20024;-83
2022/08/12 09:05:41;;;;;;;2.95;1.40;;;24.30;51.20;;;;;;5077114;28;20021;-89
2022/08/12 09:08:08;;;;;;;2.50;1.30;;;24.50;51.10;;;;;;5084930;28;20025;-87
2022/08/12 09:10:34;;;;;;;2.42;1.38;;;24.50;51.40;;;;;;5084201;28;20487;-85
2022/08/12 09:15:47;;;;;;;5.70;1.73;;;24.50;50.80;;;;;;5079616;28;20031;-83
2022/08/12 09:18:14;;;;;;;3.80;1.92;;;24.60;50.80;;;;;;5092308;28;20473;-87
2022/08/12 09:20:41;;;;;;;4.05;1.40;;;24.60;50.60;;;;;;5080200;28;20059;-82
2022/08/12 09:23:12;;;;;;;5.90;2.88;;;24.50;50.50;;;;;;5088785;28;20111;-86
2022/08/12 09:25:39;;;;;;;9.00;2.95;;;24.60;50.50;;;;;;5076382;28;20449;-88
2022/08/12 09:28:09;;;;;;;12.27;3.67;;;24.70;50.30;;;;;;5084600;28;20020;-86
2022/08/12 09:30:38;;;;;;;6.22;3.13;;;24.80;50.20;;;;;;5084266;28;20127;-86
2022/08/12 09:33:05;;;;;;;2.70;1.50;;;24.90;49.80;;;;;;5074813;28;20035;-86
2022/08/12 09:35:40;;;;;;;1.48;1.25;;;25.00;49.00;;;;;;5087340;28;20063;-77
2022/08/12 09:38:06;;;;;;;2.03;1.30;;;25.20;48.50;;;;;;5080402;28;20077;-79
2022/08/12 09:40:32;;;;;;;3.13;1.35;;;25.30;48.30;;;;;;5079684;28;20039;-79
2022/08/12 09:45:50;;;;;;;1.92;1.17;;;25.40;48.10;;;;;;5077522;28;20148;-76
2022/08/12 09:48:17;;;;;;;1.90;1.10;;;25.40;47.80;;;;;;5081836;28;20025;-76
2022/08/12 09:50:44;;;;;;;2.00;1.20;;;25.60;47.60;;;;;;5083086;28;20039;-77
2022/08/12 09:53:16;;;;;;;1.38;1.20;;;25.60;48.00;;;;;;5073906;28;20461;-80
2022/08/12 09:55:48;;;;;;;2.33;1.13;;;25.60;47.80;;;;;;5086088;28;20036;-79
2022/08/12 09:58:17;;;;;;;3.20;1.30;;;25.60;47.90;;;;;;5080646;28;20024;-80
2022/08/12 10:00:47;;;;;;;2.35;1.00;;;25.60;47.70;;;;;;5077391;28;20067;-80
2022/08/12 10:03:15;;;;;;;1.88;1.10;;;25.70;47.20;;;;;;5087085;28;20081;-79
2022/08/12 10:05:45;;;;;;;2.38;1.00;;;25.80;47.00;;;;;;5078205;28;20073;-76
2022/08/12 10:08:14;;;;;;;1.63;0.90;;;25.80;46.60;;;;;;5085233;28;20021;-78
2022/08/12 10:13:43;;;;;;;1.77;1.10;;;26.10;46.60;;;;;;5092547;28;20089;-78
2022/08/12 10:16:32;;;;;;;1.60;1.15;;;26.00;46.10;;;;;;5084650;28;20111;-79
2022/08/12 10:19:04;;;;;;;7.32;1.10;;;26.00;46.00;;;;;;5094944;28;20413;-85
2022/08/12 10:21:36;;;;;;;5.53;1.40;;;26.00;47.00;;;;;;5096417;28;20424;-90
2022/08/12 10:24:03;;;;;;;34.65;20.63;;;26.00;46.60;;;;;;5086908;28;20088;-85
2022/08/12 10:32:00;;;;;;;4.22;1.40;;;26.20;46.30;;;;;;5087269;28;20031;-86
2022/08/12 10:34:26;;;;;;;2.53;1.30;;;26.20;46.20;;;;;;5085448;28;20024;-86
2022/08/12 10:36:57;;;;;;;3.85;1.23;;;26.20;46.40;;;;;;5079878;28;20107;-84
2022/08/12 10:39:31;;;;;;;1.75;1.15;;;26.30;46.70;;;;;;5092608;28;20027;-84
2022/08/12 10:44:48;;;;;;;2.72;1.05;;;26.30;46.80;;;;;;5081797;28;20093;-87
2022/08/12 10:47:19;;;;;;;1.83;1.20;;;26.30;46.50;;;;;;5076997;28;20025;-87
2022/08/12 10:49:45;;;;;;;;;;;26.40;46.60;;;;;;5095699;28;20497;-86
2022/08/12 10:52:12;;;;;;;2.25;1.30;;;26.60;46.40;;;;;;5085114;28;20319;-87
2022/08/12 10:54:40;;;;;;;4.03;1.55;;;26.70;46.50;;;;;;5086700;28;20043;-86
2022/08/12 10:57:06;;;;;;;4.13;1.40;;;26.80;46.40;;;;;;5077451;28;20028;-85
2022/08/12 10:59:31;;;;;;;4.70;1.60;;;26.80;46.40;;;;;;5092152;28;20029;-87
2022/08/12 11:01:58;;;;;;;3.22;1.15;;;26.80;46.10;;;;;;5081377;28;20048;-85
2022/08/12 11:04:29;;;;;;;4.43;1.10;;;26.80;46.00;;;;;;5094479;28;20030;-86
2022/08/12 11:06:56;;;;;;;3.10;1.30;;;26.90;46.20;;;;;;5078898;28;20059;-87
2022/08/12 11:09:29;;;;;;;2.75;1.20;;;26.90;45.90;;;;;;5090681;28;20169;-85
2022/08/12 11:11:58;;;;;;;3.70;1.25;;;27.10;45.70;;;;;;5077611;28;20396;-85
2022/08/12 11:14:27;;;;;;;2.75;1.05;;;27.00;45.50;;;;;;5084466;28;20052;-85
2022/08/12 11:16:57;;;;;;;1.40;1.13;;;26.90;45.40;;;;;;5093593;28;20024;-84
2022/08/12 11:19:24;;;;;;;5.72;1.27;;;26.90;45.50;;;;;;5077457;28;20111;-86
2022/08/12 11:21:51;;;;;;;1.88;1.20;;;26.90;45.20;;;;;;5087598;28;20027;-81
2022/08/12 11:24:17;;;;;;;1.92;1.00;;;27.00;45.20;;;;;;5073686;28;20055;-88
2022/08/12 11:26:42;;;;;;;2.65;1.05;;;27.00;44.90;;;;;;5087517;28;20032;-87
2022/08/12 11:29:08;;;;;;;1.77;1.20;;;27.20;44.70;;;;;;5076400;28;20465;-87
2022/08/12 11:31:33;;;;;;;2.83;0.85;;;27.20;44.90;;;;;;5089543;28;20074;-84
2022/08/12 11:33:59;;;;;;;3.05;1.10;;;27.40;44.40;;;;;;5081283;28;20031;-84
2022/08/12 11:36:25;;;;;;;2.53;1.00;;;27.50;44.40;;;;;;5082805;28;20045;-84
2022/08/12 11:38:50;;;;;;;2.00;1.20;;;27.50;44.10;;;;;;5073293;28;20024;-85
2022/08/12 11:41:19;;;;;;;1.75;1.00;;;27.60;44.10;;;;;;5092760;28;20102;-84
2022/08/12 11:43:45;;;;;;;4.47;1.10;;;27.70;44.20;;;;;;5087911;28;20404;-85
2022/08/12 11:46:10;;;;;;;2.65;1.10;;;27.60;43.90;;;;;;5083833;28;20020;-84
2022/08/12 11:48:38;;;;;;;6.70;1.35;;;27.70;44.00;;;;;;5080514;28;20024;-82
2022/08/12 11:51:05;;;;;;;4.90;1.20;;;27.70;44.00;;;;;;5089171;28;20080;-80
2022/08/12 11:53:31;;;;;;;4.25;1.20;;;27.70;43.70;;;;;;5077213;28;20023;-82
2022/08/12 11:55:57;;;;;;;4.25;0.93;;;27.70;43.90;;;;;;5085889;28;20029;-80
2022/08/12 11:58:22;;;;;;;2.45;0.85;;;27.90;44.10;;;;;;5083260;28;20024;-81
2022/08/12 12:00:48;;;;;;;1.30;1.00;;;28.00;44.00;;;;;;5078208;28;20032;-87
2022/08/12 12:03:13;;;;;;;3.25;1.00;;;28.00;43.80;;;;;;5089714;28;20031;-84
2022/08/12 12:05:39;;;;;;;1.80;0.90;;;28.10;43.90;;;;;;5077384;28;20028;-89
2022/08/12 12:08:05;;;;;;;4.40;1.00;;;28.10;43.70;;;;;;5085384;28;20231;-85
2022/08/12 12:10:30;;;;;;;1.85;1.00;;;28.20;43.30;;;;;;5072856;28;20526;-84
2022/08/12 12:12:56;;;;;;;1.65;1.10;;;28.20;42.50;;;;;;5076207;28;20032;-84
2022/08/12 12:15:21;;;;;;;1.50;0.93;;;28.30;42.40;;;;;;5092561;28;20032;-85
2022/08/12 12:17:50;;;;;;;1.52;0.82;;;28.40;42.10;;;;;;5086896;28;20512;-84
2022/08/12 12:20:16;;;;;;;2.50;0.80;;;28.30;41.90;;;;;;5082510;28;20077;-84
2022/08/12 12:22:41;;;;;;;2.75;1.00;;;28.40;42.10;;;;;;5079709;28;20025;-83
2022/08/12 12:25:08;;;;;;;1.20;0.90;;;28.50;41.80;;;;;;5089609;28;20028;-82
2022/08/12 12:27:44;;;;;;;4.25;0.82;;;28.70;41.60;;;;;;5075553;28;20035;-78
2022/08/12 12:30:10;;;;;;;5.53;1.40;;;28.70;41.20;;;;;;5083308;28;20024;-78
2022/08/12 12:32:36;;;;;;;2.92;1.83;;;28.70;41.60;;;;;;5084782;28;20092;-79
2022/08/12 12:35:01;;;;;;;3.85;1.38;;;28.80;41.70;;;;;;5075452;28;20044;-78
2022/08/12 12:37:27;;;;;;;2.17;1.10;;;28.80;41.20;;;;;;5088637;28;20522;-79
2022/08/12 12:39:52;;;;;;;3.55;1.10;;;28.80;41.50;;;;;;5077811;28;20107;-81
2022/08/12 12:42:18;;;;;;;3.08;1.00;;;28.70;41.60;;;;;;5081366;28;20170;-78
2022/08/12 12:44:44;;;;;;;3.60;1.45;;;28.80;41.70;;;;;;5085038;28;20025;-77
2022/08/12 12:47:10;;;;;;;2.42;1.05;;;28.90;41.40;;;;;;5090137;28;20377;-78
2022/08/12 12:49:35;;;;;;;2.80;1.17;;;28.90;41.20;;;;;;5076211;28;20073;-78
2022/08/12 12:52:01;;;;;;;1.30;0.88;;;29.10;40.60;;;;;;5082704;28;20028;-79
2022/08/12 12:54:26;;;;;;;1.20;0.75;;;29.20;40.00;;;;;;5081423;28;20115;-76
2022/08/12 12:56:53;;;;;;;5.70;1.08;;;29.30;40.30;;;;;;5075589;28;20120;-76
2022/08/12 12:59:22;;;;;;;4.20;1.10;;;29.40;40.40;;;;;;5088553;28;20047;-77
2022/08/12 13:01:47;;;;;;;0.90;0.70;;;29.40;40.40;;;;;;5076633;28;20020;-78
2022/08/12 13:04:13;;;;;;;2.25;0.90;;;29.60;40.50;;;;;;5083229;28;20446;-77
2022/08/12 13:06:40;;;;;;;3.20;1.00;;;29.70;40.50;;;;;;5083927;28;20473;-77
2022/08/12 13:09:05;;;;;;;2.97;1.15;;;29.90;40.40;;;;;;5074724;28;20378;-77
2022/08/12 13:11:31;;;;;;;2.85;0.82;;;30.00;40.30;;;;;;5076229;28;20021;-78
2022/08/12 13:13:58;;;;;;;2.95;1.10;;;30.30;40.30;;;;;;5077013;28;20531;-77
2022/08/12 13:16:28;;;;;;;1.98;1.00;;;30.50;39.80;;;;;;5090984;28;20035;-82
2022/08/12 13:18:54;;;;;;;3.70;1.80;;;30.80;39.20;;;;;;5091903;28;20028;-78
2022/08/12 13:21:20;;;;;;;4.32;0.90;;;31.10;38.90;;;;;;5074379;28;20378;-78
2022/08/12 13:23:47;;;;;;;3.28;1.00;;;31.40;38.50;;;;;;5085763;28;20027;-81
2022/08/12 13:26:17;;;;;;;1.63;0.80;;;31.60;38.30;;;;;;5079721;28;20050;-79
2022/08/12 13:28:45;;;;;;;1.65;0.70;;;31.70;37.90;;;;;;5077416;28;20093;-79
2022/08/12 13:31:14;;;;;;;4.75;1.10;;;32.00;37.50;;;;;;5086749;28;20424;-78
2022/08/12 13:33:41;;;;;;;1.67;0.60;;;32.50;36.60;;;;;;5071415;28;20462;-78
2022/08/12 13:36:07;;;;;;;4.28;0.88;;;33.30;36.30;;;;;;5078044;28;20044;-79
2022/08/12 13:38:38;;;;;;;4.13;0.85;;;34.00;35.40;;;;;;5093268;28;20028;-78
2022/08/12 13:41:06;;;;;;;2.60;0.93;;;34.60;34.70;;;;;;5078786;28;20466;-77
2022/08/12 13:43:32;;;;;;;6.82;0.98;;;34.70;34.50;;;;;;5079005;28;20024;-77
2022/08/12 13:45:58;;;;;;;2.55;0.82;;;34.90;34.40;;;;;;5093520;28;20111;-78
2022/08/12 13:48:24;;;;;;;1.92;0.80;;;34.70;34.40;;;;;;5084175;28;20025;-77
2022/08/12 13:50:51;;;;;;;1.25;1.00;;;34.70;34.30;;;;;;5088003;28;20024;-76
2022/08/12 13:53:18;;;;;;;3.15;0.70;;;34.70;34.40;;;;;;5076714;28;20119;-78
2022/08/12 13:55:47;;;;;;;0.63;0.50;;;34.40;34.40;;;;;;5088344;28;20025;-80
2022/08/12 13:58:15;;;;;;;4.13;0.95;;;34.00;34.90;;;;;;5073969;28;20028;-79
2022/08/12 14:00:49;;;;;;;2.40;1.13;;;33.90;34.80;;;;;;5087812;28;20476;-78
2022/08/12 14:03:17;;;;;;;2.78;1.42;;;33.60;35.00;;;;;;5093062;28;20052;-78
2022/08/12 14:05:43;;;;;;;2.95;0.90;;;33.30;35.20;;;;;;5079152;28;20047;-79
2022/08/12 14:08:10;;;;;;;1.33;0.90;;;33.20;35.20;;;;;;5084543;28;20454;-78
2022/08/12 14:10:54;;;;;;;2.50;0.95;;;33.20;35.40;;;;;;5087166;28;20036;-77
2022/08/12 14:13:23;;;;;;;2.78;1.60;;;33.20;35.30;;;;;;5091111;28;20026;-77
2022/08/12 14:16:01;;;;;;;4.88;1.13;;;33.10;35.60;;;;;;5080279;28;20114;-76
2022/08/12 14:18:31;;;;;;;1.50;0.77;;;33.10;35.40;;;;;;5082231;28;20124;-77
2022/08/12 14:20:59;;;;;;;3.05;0.93;;;33.00;35.40;;;;;;5088568;28;20031;-75
2022/08/12 14:23:32;;;;;;;1.80;1.00;;;32.80;35.60;;;;;;5074062;28;20043;-76
2022/08/12 14:26:00;;;;;;;2.67;0.90;;;32.50;35.80;;;;;;5073276;28;20124;-77
2022/08/12 14:28:29;;;;;;;3.53;1.00;;;32.20;36.10;;;;;;5085034;28;20531;-81
2022/08/12 14:30:59;;;;;;;1.88;0.70;;;32.00;36.20;;;;;;5079693;28;20031;-80
2022/08/12 14:33:38;;;;;;;1.88;0.80;;;31.80;36.00;;;;;;5075540;28;20025;-78
2022/08/12 14:36:06;;;;;;;1.05;0.70;;;31.70;36.00;;;;;;5084491;28;20500;-78
2022/08/12 14:38:45;;;;;;;1.33;0.77;;;31.60;36.50;;;;;;5085424;28;20035;-81
2022/08/12 14:41:18;;;;;;;3.15;0.90;;;31.60;36.40;;;;;;5076612;28;20032;-76
2022/08/12 14:43:47;;;;;;;2.13;0.85;;;31.70;36.50;;;;;;5088081;28;20017;-79
2022/08/12 14:46:22;;;;;;;2.92;0.65;;;31.70;36.60;;;;;;5083238;28;20028;-78